createdAt,value
2022-12-09T00:00:18.077Z,92.23
2022-12-09T00:03:10.616Z,92.30
2022-12-09T00:05:43.283Z,92.23
2022-12-09T00:08:15.889Z,92.30
2022-12-09T00:10:48.790Z,92.20
2022-12-09T00:13:20.694Z,92.26
2022-12-09T00:15:52.538Z,92.22
2022-12-09T00:18:24.333Z,92.13
2022-12-09T00:20:56.490Z,92.23
2022-12-09T00:23:28.378Z,92.21
2022-12-09T00:26:00.893Z,92.21
2022-12-09T00:28:32.805Z,92.43
2022-12-09T00:31:05.610Z,92.53
2022-12-09T00:33:37.842Z,92.50
2022-12-09T00:36:15.655Z,92.57
2022-12-09T00:38:48.395Z,92.53
2022-12-09T00:41:20.780Z,92.38
2022-12-09T00:43:52.722Z,92.33
2022-12-09T00:46:25.255Z,92.66
2022-12-09T00:48:57.656Z,92.45
2022-12-09T00:51:29.618Z,92.42
2022-12-09T00:54:01.486Z,92.45
2022-12-09T00:56:33.773Z,92.20
2022-12-09T00:59:05.855Z,92.19
2022-12-09T01:01:37.946Z,92.15
2022-12-09T01:04:09.878Z,92.11
2022-12-09T01:06:41.957Z,92.11
2022-12-09T01:09:14.119Z,92.25
2022-12-09T01:11:46.474Z,92.20
2022-12-09T01:14:18.545Z,92.23
2022-12-09T01:16:50.847Z,92.38
2022-12-09T01:19:23.023Z,92.27
2022-12-09T01:21:55.726Z,92.25
2022-12-09T01:24:27.473Z,92.29
2022-12-09T01:26:59.705Z,92.41
2022-12-09T01:29:31.688Z,92.38
2022-12-09T01:32:03.681Z,92.31
2022-12-09T01:34:35.790Z,92.29
2022-12-09T01:37:08.020Z,92.50
2022-12-09T01:39:40.485Z,92.60
2022-12-09T01:42:22.149Z,92.47
2022-12-09T01:45:30.801Z,92.57
2022-12-09T01:48:06.897Z,92.51
2022-12-09T01:50:40.018Z,92.77
2022-12-09T01:53:12.612Z,92.84
2022-12-09T01:55:44.629Z,93.33
2022-12-09T01:58:17.422Z,93.36
2022-12-09T02:00:49.476Z,93.34
2022-12-09T02:03:21.736Z,93.32
2022-12-09T02:05:54.066Z,93.34
2022-12-09T02:08:26.333Z,93.26
2022-12-09T02:11:06.891Z,93.21
2022-12-09T02:13:45.071Z,93.17
2022-12-09T02:16:20.901Z,93.13
2022-12-09T02:18:56.573Z,93.12
2022-12-09T02:21:29.980Z,93.00
2022-12-09T02:24:05.441Z,92.96
2022-12-09T02:26:43.217Z,93.21
2022-12-09T02:29:54.163Z,93.02
2022-12-09T02:32:49.910Z,93.11
2022-12-09T02:35:25.139Z,92.94
2022-12-09T02:37:59.589Z,92.92
2022-12-09T02:40:34.205Z,92.82
2022-12-09T02:43:09.357Z,92.90
2022-12-09T02:45:43.417Z,93.10
2022-12-09T02:48:16.535Z,93.19
2022-12-09T02:50:49.483Z,93.10
2022-12-09T02:53:21.606Z,93.29
2022-12-09T02:55:54.925Z,93.23
2022-12-09T02:58:26.763Z,93.32
2022-12-09T03:00:59.320Z,93.43
2022-12-09T03:03:34.399Z,93.42
2022-12-09T03:06:10.314Z,93.44
2022-12-09T03:08:47.736Z,93.39
2022-12-09T03:11:21.994Z,93.60
2022-12-09T03:14:00.351Z,93.56
2022-12-09T03:16:36.758Z,93.82
2022-12-09T03:19:12.880Z,93.94
2022-12-09T03:21:47.564Z,94.00
2022-12-09T03:24:21.843Z,94.08
2022-12-09T03:26:54.608Z,94.10
2022-12-09T03:29:28.855Z,94.01
2022-12-09T03:31:59.713Z,93.96
2022-12-09T03:34:36.253Z,94.05
2022-12-09T03:37:09.153Z,94.05
2022-12-09T03:39:42.535Z,93.99
2022-12-09T03:42:19.086Z,93.88
2022-12-09T03:44:53.609Z,93.90
2022-12-09T03:47:25.908Z,93.92
2022-12-09T03:49:58.111Z,94.07
2022-12-09T03:52:35.602Z,93.96
2022-12-09T03:55:10.805Z,93.88
2022-12-09T03:57:44.677Z,94.15
2022-12-09T04:00:18.395Z,94.27
2022-12-09T04:02:50.823Z,94.09
2022-12-09T04:05:23.377Z,94.15
2022-12-09T04:07:55.177Z,94.25
2022-12-09T04:10:27.666Z,94.28
2022-12-09T04:12:59.598Z,94.25
2022-12-09T04:15:31.594Z,94.32
2022-12-09T04:18:04.128Z,94.40
2022-12-09T04:20:36.279Z,94.62
2022-12-09T04:23:08.055Z,94.44
2022-12-09T04:25:41.103Z,94.61
2022-12-09T04:28:13.288Z,94.51
2022-12-09T04:30:48.629Z,94.45
2022-12-09T04:33:20.948Z,94.56
2022-12-09T04:35:52.898Z,94.51
2022-12-09T04:38:25.251Z,94.50
2022-12-09T04:40:57.445Z,94.52
2022-12-09T04:43:29.923Z,94.42
2022-12-09T04:46:04.918Z,94.41
2022-12-09T04:48:37.224Z,94.56
2022-12-09T04:51:10.589Z,94.59
2022-12-09T04:53:42.768Z,94.43
2022-12-09T04:56:17.147Z,94.46
2022-12-09T04:58:50.010Z,94.49
2022-12-09T05:01:30.057Z,94.62
2022-12-09T05:04:03.776Z,94.47
2022-12-09T05:06:36.577Z,94.47
2022-12-09T05:09:11.458Z,94.45
2022-12-09T05:11:43.861Z,94.46
2022-12-09T05:14:16.437Z,94.39
2022-12-09T05:16:48.323Z,94.32
2022-12-09T05:19:21.086Z,94.18
2022-12-09T05:21:53.557Z,94.17
2022-12-09T05:24:26.107Z,94.15
2022-12-09T05:26:58.198Z,94.08
2022-12-09T05:29:30.612Z,94.10
2022-12-09T05:32:02.968Z,94.11
2022-12-09T05:34:35.866Z,94.19
2022-12-09T05:37:08.923Z,94.15
2022-12-09T05:39:40.880Z,94.08
2022-12-09T05:42:12.730Z,94.14
2022-12-09T05:44:44.953Z,94.19
2022-12-09T05:47:17.127Z,94.14
2022-12-09T05:49:49.634Z,94.24
2022-12-09T05:52:21.681Z,94.29
2022-12-09T05:54:53.919Z,94.36
2022-12-09T05:57:25.770Z,94.30
2022-12-09T05:59:58.455Z,94.16
2022-12-09T06:02:30.571Z,94.24
2022-12-09T06:05:03.283Z,94.04
2022-12-09T06:07:35.681Z,94.11
2022-12-09T06:10:10.243Z,94.06
2022-12-09T06:12:42.565Z,93.88
2022-12-09T06:15:21.296Z,94.04
2022-12-09T06:17:53.754Z,93.96
2022-12-09T06:20:26.317Z,93.99
2022-12-09T06:22:58.230Z,93.92
2022-12-09T06:25:30.346Z,93.90
2022-12-09T06:28:02.928Z,93.84
2022-12-09T06:30:34.910Z,93.80
2022-12-09T06:33:29.117Z,93.81
2022-12-09T06:36:03.408Z,93.76
2022-12-09T06:38:35.832Z,93.85
2022-12-09T06:41:11.080Z,93.73
2022-12-09T06:43:43.301Z,93.73
2022-12-09T06:46:17.153Z,93.60
2022-12-09T06:48:49.854Z,93.58
2022-12-09T06:51:22.895Z,93.59
2022-12-09T06:53:55.355Z,93.56
2022-12-09T06:56:27.816Z,93.64
2022-12-09T06:58:59.886Z,93.57
2022-12-09T07:01:32.263Z,93.70
2022-12-09T07:04:06.548Z,93.73
2022-12-09T07:06:40.279Z,93.74
2022-12-09T07:09:14.769Z,93.67
2022-12-09T07:11:47.393Z,93.70
2022-12-09T07:14:20.719Z,93.67
2022-12-09T07:16:53.133Z,93.78
2022-12-09T07:19:26.272Z,93.60
2022-12-09T07:21:58.577Z,93.75
2022-12-09T07:24:30.451Z,93.83
2022-12-09T07:27:08.111Z,93.80
2022-12-09T07:29:41.941Z,93.75
2022-12-09T07:32:14.235Z,93.84
2022-12-09T07:34:46.607Z,93.91
2022-12-09T07:37:18.965Z,93.96
2022-12-09T07:39:50.841Z,94.05
2022-12-09T07:42:22.882Z,94.19
2022-12-09T07:44:54.707Z,94.30
2022-12-09T07:47:26.534Z,94.39
2022-12-09T07:50:02.951Z,94.47
2022-12-09T07:52:38.443Z,94.58
2022-12-09T07:55:12.809Z,94.71
2022-12-09T07:57:45.463Z,94.73
2022-12-09T08:00:19.539Z,95.07
2022-12-09T08:02:50.375Z,95.85
2022-12-09T08:05:22.740Z,96.69
2022-12-09T08:07:55.132Z,96.59
2022-12-09T08:10:27.421Z,96.24
2022-12-09T08:13:00.618Z,96.75
2022-12-09T08:15:32.752Z,96.18
2022-12-09T08:18:04.781Z,94.89
2022-12-09T08:20:37.071Z,94.41
2022-12-09T08:23:09.666Z,93.54
2022-12-09T08:25:41.911Z,93.07
2022-12-09T08:28:13.897Z,91.42
2022-12-09T08:30:46.498Z,89.01
2022-12-09T08:33:19.618Z,87.13
2022-12-09T08:35:51.773Z,86.82
2022-12-09T08:38:24.037Z,86.84
2022-12-09T08:40:56.012Z,86.06
2022-12-09T08:43:28.425Z,85.95
2022-12-09T08:46:03.181Z,86.09
2022-12-09T08:48:36.639Z,86.08
2022-12-09T08:51:10.761Z,85.87
2022-12-09T08:53:43.616Z,86.49
2022-12-09T08:56:16.865Z,86.79
2022-12-09T08:58:49.594Z,86.82
2022-12-09T09:01:23.387Z,87.10
2022-12-09T09:03:55.890Z,87.32
2022-12-09T09:06:28.032Z,87.63
2022-12-09T09:09:01.038Z,87.82
2022-12-09T09:11:33.361Z,88.22
2022-12-09T09:14:07.922Z,88.38
2022-12-09T09:16:42.312Z,88.55
2022-12-09T09:19:18.691Z,88.92
2022-12-09T09:21:51.032Z,88.89
2022-12-09T09:24:25.168Z,89.15
2022-12-09T09:26:56.831Z,89.22
2022-12-09T09:29:28.873Z,89.25
2022-12-09T09:32:01.152Z,89.56
2022-12-09T09:34:33.610Z,89.88
2022-12-09T09:37:05.596Z,89.91
2022-12-09T09:39:37.491Z,90.20
2022-12-09T09:42:14.181Z,90.20
2022-12-09T09:44:48.600Z,90.36
2022-12-09T09:47:28.571Z,90.47
2022-12-09T09:50:05.933Z,90.47
2022-12-09T09:52:40.118Z,90.53
2022-12-09T09:55:20.569Z,90.76
2022-12-09T09:57:58.205Z,90.87
2022-12-09T10:00:33.426Z,90.92
2022-12-09T10:03:11.084Z,91.04
2022-12-09T10:05:48.142Z,91.22
2022-12-09T10:08:32.795Z,91.15
2022-12-09T10:11:15.113Z,91.20
2022-12-09T10:13:51.619Z,91.15
2022-12-09T10:16:28.196Z,91.34
2022-12-09T10:19:09.089Z,91.28
2022-12-09T10:21:44.527Z,91.19
2022-12-09T10:24:23.291Z,91.47
2022-12-09T10:27:01.461Z,91.55
2022-12-09T10:29:47.780Z,91.55
2022-12-09T10:32:22.260Z,91.57
2022-12-09T10:34:54.338Z,91.66
2022-12-09T10:37:30.838Z,91.66
2022-12-09T10:40:16.400Z,91.67
2022-12-09T10:43:08.067Z,91.77
2022-12-09T10:48:45.433Z,91.62
2022-12-09T10:51:22.068Z,91.51
2022-12-09T10:53:56.815Z,91.43
2022-12-09T10:56:27.935Z,91.47
2022-12-09T10:59:25.757Z,91.50
2022-12-09T11:01:59.713Z,91.70
2022-12-09T11:04:34.272Z,91.48
2022-12-09T11:07:15.651Z,91.34
2022-12-09T11:09:49.071Z,91.43
2022-12-09T11:12:38.483Z,91.44
2022-12-09T11:15:32.394Z,91.42
2022-12-09T11:18:06.852Z,91.21
2022-12-09T11:20:40.118Z,91.45
2022-12-09T11:23:18.963Z,91.42
2022-12-09T11:25:57.767Z,91.31
2022-12-09T11:28:31.949Z,91.56
2022-12-09T11:34:01.263Z,91.33
2022-12-09T11:36:36.801Z,91.04
2022-12-09T11:39:28.761Z,91.23
2022-12-09T11:42:19.643Z,91.27
2022-12-09T11:44:58.230Z,91.16
2022-12-09T11:47:50.272Z,91.01
2022-12-09T11:50:31.434Z,91.01
2022-12-09T11:53:17.474Z,90.68
2022-12-09T11:55:51.088Z,90.61
2022-12-09T11:58:25.992Z,90.63
2022-12-09T12:01:02.729Z,90.66
2022-12-09T12:03:39.172Z,90.50
2022-12-09T12:06:17.142Z,90.46
2022-12-09T12:08:52.598Z,90.39
2022-12-09T12:11:29.298Z,90.25
2022-12-09T12:14:05.106Z,90.15
2022-12-09T12:16:45.307Z,90.14
2022-12-09T12:19:21.231Z,90.25
2022-12-09T12:22:19.279Z,90.20
2022-12-09T12:25:11.186Z,90.05
2022-12-09T12:28:02.352Z,90.01
2022-12-09T12:30:40.568Z,89.99
2022-12-09T12:36:29.523Z,89.74
2022-12-09T12:39:09.787Z,89.38
2022-12-09T12:41:48.170Z,89.51
2022-12-09T12:45:00.508Z,89.44
2022-12-09T12:47:38.393Z,89.40
2022-12-09T12:50:35.691Z,89.10
2022-12-09T12:53:15.476Z,89.10
2022-12-09T12:55:52.828Z,89.14
2022-12-09T12:58:37.371Z,88.95
2022-12-09T13:01:13.423Z,88.98
2022-12-09T13:03:54.766Z,88.93
2022-12-09T13:06:35.232Z,89.05
2022-12-09T13:09:10.915Z,89.16
2022-12-09T13:11:52.584Z,88.98
2022-12-09T13:14:32.163Z,89.21
2022-12-09T13:17:08.867Z,89.09
2022-12-09T13:19:42.863Z,89.17
2022-12-09T13:22:21.779Z,89.19
2022-12-09T13:25:02.078Z,89.11
2022-12-09T13:27:38.589Z,89.18
2022-12-09T13:30:14.701Z,89.21
2022-12-09T13:33:03.245Z,89.06
2022-12-09T13:35:38.911Z,89.20
2022-12-09T13:38:27.186Z,89.07
2022-12-09T13:40:59.148Z,89.09
2022-12-09T13:43:33.892Z,88.94
2022-12-09T13:46:05.778Z,89.00
2022-12-09T13:48:47.576Z,88.90
2022-12-09T13:51:21.324Z,89.03
2022-12-09T13:54:01.163Z,89.02
2022-12-09T13:56:34.575Z,89.20
2022-12-09T13:59:40.252Z,89.31
2022-12-09T14:02:22.101Z,89.15
2022-12-09T14:05:00.085Z,89.30
2022-12-09T14:07:36.770Z,89.35
2022-12-09T14:10:15.420Z,89.45
2022-12-09T14:13:22.559Z,89.34
2022-12-09T14:16:18.376Z,89.33
2022-12-09T14:18:50.505Z,89.36
2022-12-09T14:21:30.932Z,89.40
2022-12-09T14:24:34.477Z,89.50
2022-12-09T14:27:15.479Z,89.12
2022-12-09T14:29:49.387Z,89.19
2022-12-09T14:32:26.603Z,89.20
2022-12-09T14:35:21.776Z,89.33
2022-12-09T14:38:08.024Z,89.10
2022-12-09T14:40:52.036Z,89.13
2022-12-09T14:44:05.941Z,89.10
2022-12-09T14:46:54.424Z,89.16
2022-12-09T14:49:29.974Z,89.20
2022-12-09T14:52:04.504Z,89.15
2022-12-09T14:54:39.250Z,89.19
2022-12-09T14:57:20.446Z,89.23
2022-12-09T14:59:54.660Z,89.43
2022-12-09T15:02:29.940Z,89.57
2022-12-09T15:05:03.740Z,89.51
2022-12-09T15:07:36.538Z,89.68
2022-12-09T15:10:18.743Z,89.66
2022-12-09T15:12:54.339Z,89.57
2022-12-09T15:15:30.946Z,89.82
2022-12-09T15:18:04.875Z,89.76
2022-12-09T15:20:38.377Z,89.63
2022-12-09T15:23:18.618Z,89.67
2022-12-09T15:25:52.383Z,89.74
2022-12-09T15:28:26.996Z,89.84
2022-12-09T15:31:01.361Z,89.78
2022-12-09T15:33:39.822Z,89.73
2022-12-09T15:36:13.369Z,89.89
2022-12-09T15:38:48.960Z,89.91
2022-12-09T15:41:39.357Z,89.76
2022-12-09T15:44:14.158Z,89.83
2022-12-09T15:46:47.397Z,89.94
2022-12-09T15:49:23.393Z,89.94
2022-12-09T15:51:57.125Z,89.96
2022-12-09T15:54:30.933Z,90.07
2022-12-09T15:57:03.715Z,90.00
2022-12-09T15:59:37.957Z,90.08
2022-12-09T16:02:15.427Z,90.17
2022-12-09T16:04:49.449Z,90.10
2022-12-09T16:07:22.303Z,90.12
2022-12-09T16:10:11.438Z,90.17
2022-12-09T16:12:44.481Z,90.40
2022-12-09T16:15:55.909Z,90.38
2022-12-09T16:18:30.259Z,90.67
2022-12-09T16:21:11.313Z,90.69
2022-12-09T16:23:43.855Z,90.75
2022-12-09T16:26:22.767Z,90.83
2022-12-09T16:29:01.506Z,90.77
2022-12-09T16:31:33.710Z,90.78
2022-12-09T16:34:05.617Z,90.89
2022-12-09T16:36:37.619Z,90.88
2022-12-09T16:39:35.831Z,90.83
2022-12-09T16:42:23.357Z,90.89
2022-12-09T16:44:55.115Z,90.73
2022-12-09T16:47:27.638Z,90.74
2022-12-09T16:49:59.336Z,90.97
2022-12-09T16:52:31.367Z,90.81
2022-12-09T16:55:03.334Z,90.83
2022-12-09T16:57:35.212Z,90.75
2022-12-09T17:00:09.041Z,90.80
2022-12-09T17:02:43.306Z,90.93
2022-12-09T17:05:15.213Z,90.82
2022-12-09T17:07:46.941Z,90.77
2022-12-09T17:10:19.335Z,91.01
2022-12-09T17:12:51.358Z,91.13
2022-12-09T17:15:23.318Z,91.10
2022-12-09T17:17:55.551Z,91.32
2022-12-09T17:20:27.306Z,91.55
2022-12-09T17:22:59.127Z,91.60
2022-12-09T17:25:33.452Z,91.89
2022-12-09T17:28:06.784Z,91.83
2022-12-09T17:30:41.307Z,91.69
2022-12-09T17:33:13.049Z,91.72
2022-12-09T17:35:44.872Z,91.99
2022-12-09T17:38:16.610Z,91.92
2022-12-09T17:40:48.438Z,92.19
2022-12-09T17:43:20.101Z,92.39
2022-12-09T17:45:52.547Z,92.25
2022-12-09T17:48:24.394Z,92.11
2022-12-09T17:50:56.844Z,92.41
2022-12-09T17:53:28.627Z,92.33
2022-12-09T17:56:00.328Z,92.26
2022-12-09T17:58:32.368Z,93.01
2022-12-09T18:01:04.917Z,93.14
2022-12-09T18:03:55.622Z,92.86
2022-12-09T18:06:31.405Z,92.76
2022-12-09T18:09:03.344Z,92.69
2022-12-09T18:11:35.579Z,92.91
2022-12-09T18:14:08.239Z,92.82
2022-12-09T18:16:40.579Z,92.70
2022-12-09T18:19:15.466Z,92.57
2022-12-09T18:21:47.866Z,92.48
2022-12-09T18:24:19.868Z,92.31
2022-12-09T18:26:51.731Z,92.52
2022-12-09T18:29:24.134Z,92.38
2022-12-09T18:31:57.255Z,92.61
2022-12-09T18:34:33.031Z,92.52
2022-12-09T18:37:05.329Z,92.57
2022-12-09T18:39:37.170Z,92.59
2022-12-09T18:42:09.307Z,93.22
2022-12-09T18:44:41.155Z,93.03
2022-12-09T18:47:13.019Z,92.89
2022-12-09T18:49:45.256Z,93.00
2022-12-09T18:52:17.255Z,93.09
2022-12-09T18:54:50.070Z,92.86
2022-12-09T18:57:26.181Z,92.87
2022-12-09T19:00:00.801Z,92.85
2022-12-09T19:02:32.804Z,92.93
2022-12-09T19:05:06.788Z,92.98
2022-12-09T19:07:38.507Z,93.33
2022-12-09T19:10:10.523Z,93.19
2022-12-09T19:12:55.147Z,93.30
2022-12-09T19:15:32.519Z,93.26
2022-12-09T19:18:04.616Z,93.10
2022-12-09T19:20:36.336Z,93.23
2022-12-09T19:23:09.031Z,93.12
2022-12-09T19:25:43.526Z,93.17
2022-12-09T19:28:15.943Z,93.19
2022-12-09T19:30:49.983Z,93.10
2022-12-09T19:33:20.278Z,93.08
2022-12-09T19:35:52.147Z,93.25
2022-12-09T19:38:23.799Z,93.15
2022-12-09T19:40:56.236Z,93.39
2022-12-09T19:43:27.899Z,93.21
2022-12-09T19:46:04.776Z,93.24
2022-12-09T19:48:38.368Z,93.91
2022-12-09T19:51:11.886Z,93.92
2022-12-09T19:53:44.831Z,93.50
2022-12-09T19:56:17.963Z,93.54
2022-12-09T19:58:50.490Z,93.64
2022-12-09T20:01:24.881Z,93.69
2022-12-09T20:04:08.718Z,93.48
2022-12-09T20:06:52.569Z,93.31
2022-12-09T20:09:25.468Z,93.41
2022-12-09T20:11:58.442Z,93.38
2022-12-09T20:14:30.077Z,93.14
2022-12-09T20:17:02.133Z,93.20
2022-12-09T20:19:35.986Z,93.14
2022-12-09T20:22:08.069Z,93.05
2022-12-09T20:24:39.850Z,93.07
2022-12-09T20:27:11.630Z,93.13
2022-12-09T20:29:43.461Z,93.27
2022-12-09T20:32:15.335Z,93.36
2022-12-09T20:34:49.817Z,93.33
2022-12-09T20:37:21.808Z,93.68
2022-12-09T20:39:53.516Z,93.47
2022-12-09T20:42:25.544Z,93.67
2022-12-09T20:44:57.467Z,93.88
2022-12-09T20:47:29.398Z,93.83
2022-12-09T20:50:01.290Z,94.19
2022-12-09T20:52:33.082Z,94.06
2022-12-09T20:55:05.047Z,94.06
2022-12-09T20:57:36.967Z,94.16
2022-12-09T21:00:11.005Z,94.11
2022-12-09T21:02:42.837Z,93.88
2022-12-09T21:05:15.051Z,93.92
2022-12-09T21:07:47.173Z,93.86
2022-12-09T21:10:19.053Z,93.87
2022-12-09T21:12:50.898Z,93.87
2022-12-09T21:15:23.915Z,94.31
2022-12-09T21:17:56.067Z,94.08
2022-12-09T21:20:27.702Z,94.19
2022-12-09T21:23:32.424Z,94.16
2022-12-09T21:25:51.306Z,93.96
2022-12-09T21:28:23.636Z,94.04
2022-12-09T21:30:55.643Z,94.07
2022-12-09T21:33:27.690Z,94.29
2022-12-09T21:35:59.500Z,94.59
2022-12-09T21:38:31.315Z,94.28
2022-12-09T21:41:06.006Z,94.19
2022-12-09T21:43:38.732Z,94.24
2022-12-09T21:46:11.959Z,94.12
2022-12-09T21:48:45.926Z,94.69
2022-12-09T21:51:22.107Z,94.94
2022-12-09T21:53:54.221Z,94.67
2022-12-09T21:56:28.134Z,94.66
2022-12-09T21:59:00.836Z,94.37
2022-12-09T22:01:34.273Z,94.71
2022-12-09T22:04:08.613Z,94.76
2022-12-09T22:06:40.558Z,94.85
2022-12-09T22:09:13.417Z,94.46
2022-12-09T22:11:45.362Z,94.24
2022-12-09T22:14:22.331Z,94.34
2022-12-09T22:16:54.715Z,94.22
2022-12-09T22:19:27.663Z,94.24
2022-12-09T22:22:02.388Z,94.32
2022-12-09T22:24:37.949Z,94.25
2022-12-09T22:27:10.133Z,94.27
2022-12-09T22:29:42.231Z,94.21
2022-12-09T22:32:14.001Z,94.25
2022-12-09T22:34:45.799Z,94.29
2022-12-09T22:37:42.429Z,94.24
2022-12-09T22:40:12.897Z,94.25
2022-12-09T22:42:43.044Z,94.07
2022-12-09T22:45:15.066Z,94.23
2022-12-09T22:47:46.827Z,94.15
2022-12-09T22:50:18.681Z,94.09
2022-12-09T22:52:50.535Z,94.06
2022-12-09T22:55:22.276Z,94.09
2022-12-09T22:57:54.031Z,94.08
2022-12-09T23:00:25.871Z,93.98
2022-12-09T23:02:57.893Z,93.89
2022-12-09T23:05:34.689Z,93.86
2022-12-09T23:08:07.470Z,93.96
2022-12-09T23:10:39.727Z,93.94
2022-12-09T23:13:11.755Z,94.03
2022-12-09T23:15:43.472Z,93.87
2022-12-09T23:18:15.445Z,94.13
2022-12-09T23:20:47.179Z,93.83
2022-12-09T23:23:19.019Z,93.83
2022-12-09T23:25:50.759Z,93.88
2022-12-09T23:28:22.523Z,94.05
2022-12-09T23:31:02.664Z,94.18
2022-12-09T23:33:36.051Z,94.15
2022-12-09T23:39:25.603Z,94.25
2022-12-09T23:41:53.800Z,94.20
2022-12-09T23:44:22.000Z,94.14
2022-12-09T23:46:50.462Z,94.21
2022-12-09T23:49:18.795Z,94.19
2022-12-09T23:51:47.362Z,94.36
2022-12-09T23:54:17.428Z,94.69
2022-12-09T23:56:49.119Z,94.53
2022-12-09T23:59:19.006Z,94.70
